createdAt,value
2022-11-25T00:00:54.681Z,0
2022-11-25T00:01:55.063Z,0
2022-11-25T00:02:54.832Z,0
2022-11-25T00:03:55.182Z,0
2022-11-25T00:04:54.853Z,0
2022-11-25T00:05:54.782Z,0
2022-11-25T00:06:55.108Z,0
2022-11-25T00:07:54.920Z,0
2022-11-25T00:08:57.676Z,0
2022-11-25T00:09:54.885Z,0
2022-11-25T00:10:54.804Z,0
2022-11-25T00:11:55.238Z,0
2022-11-25T00:12:54.765Z,0
2022-11-25T00:13:54.702Z,0
2022-11-25T00:14:54.676Z,0
2022-11-25T00:15:54.658Z,0
2022-11-25T00:16:55.204Z,0
2022-11-25T00:17:54.751Z,0
2022-11-25T00:18:55.146Z,0
2022-11-25T00:19:57.675Z,0
2022-11-25T00:20:54.791Z,0
2022-11-25T00:21:54.668Z,0
2022-11-25T00:22:54.794Z,0
2022-11-25T00:23:54.654Z,0
2022-11-25T00:24:54.670Z,0
2022-11-25T00:25:54.770Z,0
2022-11-25T00:26:54.662Z,0
2022-11-25T00:27:54.678Z,0
2022-11-25T00:28:54.661Z,0
2022-11-25T00:29:54.661Z,0
2022-11-25T00:30:57.686Z,0
2022-11-25T00:31:54.843Z,0
2022-11-25T00:32:55.218Z,0
2022-11-25T00:33:55.321Z,0
2022-11-25T00:34:54.676Z,0
2022-11-25T00:35:54.662Z,0
2022-11-25T00:36:54.673Z,0
2022-11-25T00:37:55.099Z,0
2022-11-25T00:38:54.749Z,0
2022-11-25T00:39:54.815Z,0
2022-11-25T00:40:54.732Z,0
2022-11-25T00:41:57.855Z,0
2022-11-25T00:42:55.076Z,0
2022-11-25T00:43:54.742Z,0
2022-11-25T00:44:54.761Z,0
2022-11-25T00:45:54.848Z,0
2022-11-25T00:46:54.671Z,0
2022-11-25T00:47:54.701Z,0
2022-11-25T00:48:55.093Z,0
2022-11-25T00:49:55.039Z,0
2022-11-25T00:50:54.907Z,0
2022-11-25T00:51:54.760Z,0
2022-11-25T00:53:00.782Z,0
2022-11-25T00:53:58.720Z,0
2022-11-25T00:54:54.773Z,0
2022-11-25T00:55:54.827Z,0
2022-11-25T00:56:54.741Z,0
2022-11-25T00:57:55.120Z,0
2022-11-25T00:58:54.768Z,0
2022-11-25T00:59:54.674Z,0
2022-11-25T01:00:54.701Z,0
2022-11-25T01:01:54.739Z,0
2022-11-25T01:02:55.152Z,0
2022-11-25T01:03:57.673Z,0
2022-11-25T01:04:55.029Z,0
2022-11-25T01:05:54.753Z,0
2022-11-25T01:06:54.684Z,0
2022-11-25T01:07:54.728Z,0
2022-11-25T01:08:54.692Z,0
2022-11-25T01:09:54.769Z,0
2022-11-25T01:10:54.658Z,0
2022-11-25T01:11:54.652Z,0
2022-11-25T01:12:55.100Z,0
2022-11-25T01:14:00.657Z,0
2022-11-25T01:14:57.674Z,0
2022-11-25T01:15:54.734Z,0
2022-11-25T01:16:54.776Z,0
2022-11-25T01:17:55.149Z,0
2022-11-25T01:18:54.730Z,0
2022-11-25T01:19:55.098Z,0
2022-11-25T01:20:54.827Z,0
2022-11-25T01:21:54.674Z,0
2022-11-25T01:22:55.070Z,0
2022-11-25T01:23:54.894Z,0
2022-11-25T01:24:54.669Z,0
2022-11-25T01:25:57.684Z,0
2022-11-25T01:26:55.038Z,0
2022-11-25T01:27:55.031Z,0
2022-11-25T01:28:54.744Z,0
2022-11-25T01:29:54.678Z,0
2022-11-25T01:30:54.650Z,0
2022-11-25T01:31:54.844Z,0
2022-11-25T01:32:55.104Z,0
2022-11-25T01:33:54.775Z,0
2022-11-25T01:34:55.102Z,0
2022-11-25T01:35:54.767Z,0
2022-11-25T01:36:57.668Z,0
2022-11-25T01:37:54.767Z,0
2022-11-25T01:38:54.782Z,0
2022-11-25T01:39:54.671Z,0
2022-11-25T01:40:54.760Z,0
2022-11-25T01:41:54.723Z,0
2022-11-25T01:42:54.785Z,0
2022-11-25T01:43:54.664Z,0
2022-11-25T01:44:54.670Z,0
2022-11-25T01:45:54.678Z,0
2022-11-25T01:46:54.658Z,0
2022-11-25T01:48:00.748Z,0
2022-11-25T01:48:54.837Z,0
2022-11-25T01:49:55.096Z,0
2022-11-25T01:50:54.734Z,0
2022-11-25T01:51:54.671Z,0
2022-11-25T01:52:54.792Z,0
2022-11-25T01:53:54.674Z,0
2022-11-25T01:54:54.786Z,0
2022-11-25T01:55:54.672Z,0
2022-11-25T01:56:54.677Z,0
2022-11-25T01:57:55.100Z,0
2022-11-25T01:58:57.672Z,0
2022-11-25T01:59:54.758Z,0
2022-11-25T02:00:54.827Z,0
2022-11-25T02:01:54.705Z,0
2022-11-25T02:02:55.098Z,0
2022-11-25T02:03:54.783Z,0
2022-11-25T02:04:55.017Z,0
2022-11-25T02:05:54.682Z,0
2022-11-25T02:06:54.671Z,0
2022-11-25T02:07:54.786Z,0
2022-11-25T02:08:54.739Z,0
2022-11-25T02:09:57.669Z,0
2022-11-25T02:10:54.742Z,0
2022-11-25T02:11:54.652Z,0
2022-11-25T02:12:55.110Z,0
2022-11-25T02:13:54.763Z,0
2022-11-25T02:14:54.668Z,0
2022-11-25T02:15:54.686Z,0
2022-11-25T02:16:54.732Z,0
2022-11-25T02:17:55.102Z,0
2022-11-25T02:18:54.749Z,0
2022-11-25T02:19:55.095Z,0
2022-11-25T02:20:57.625Z,0
2022-11-25T02:21:54.727Z,0
2022-11-25T02:22:54.738Z,0
2022-11-25T02:23:54.672Z,0
2022-11-25T02:24:54.793Z,0
2022-11-25T02:25:54.738Z,0
2022-11-25T02:26:54.655Z,0
2022-11-25T02:27:55.125Z,0
2022-11-25T02:28:54.736Z,0
2022-11-25T02:29:54.753Z,0
2022-11-25T02:30:54.751Z,0
2022-11-25T02:31:54.701Z,0
2022-11-25T02:32:55.032Z,0
2022-11-25T02:33:54.772Z,0
2022-11-25T02:34:55.182Z,0
2022-11-25T02:35:54.676Z,0
2022-11-25T02:36:57.695Z,0
2022-11-25T02:37:54.831Z,0
2022-11-25T02:38:54.772Z,0
2022-11-25T02:39:54.770Z,0
2022-11-25T02:40:54.673Z,0
2022-11-25T02:41:54.651Z,0
2022-11-25T02:42:54.681Z,0
2022-11-25T02:43:54.678Z,0
2022-11-25T02:44:54.737Z,0
2022-11-25T02:45:54.879Z,0
2022-11-25T02:46:54.738Z,0
2022-11-25T02:48:00.755Z,0
2022-11-25T02:49:09.009Z,0
2022-11-25T02:49:55.105Z,0
2022-11-25T02:50:54.742Z,0
2022-11-25T02:51:54.652Z,0
2022-11-25T02:52:54.784Z,0
2022-11-25T02:53:54.657Z,0
2022-11-25T02:54:54.668Z,0
2022-11-25T02:55:54.672Z,0
2022-11-25T02:56:54.660Z,0
2022-11-25T02:57:55.162Z,0
2022-11-25T02:58:57.676Z,0
2022-11-25T02:59:54.703Z,0
2022-11-25T03:00:54.835Z,0
2022-11-25T03:01:54.849Z,0
2022-11-25T03:02:55.113Z,0
2022-11-25T03:03:54.763Z,0
2022-11-25T03:04:55.062Z,0
2022-11-25T03:05:54.667Z,0
2022-11-25T03:06:54.743Z,0
2022-11-25T03:07:55.194Z,0
2022-11-25T03:08:54.750Z,0
2022-11-25T03:09:57.681Z,0
2022-11-25T03:10:54.749Z,0
2022-11-25T03:11:54.661Z,0
2022-11-25T03:12:55.148Z,0
2022-11-25T03:13:54.775Z,0
2022-11-25T03:14:54.768Z,0
2022-11-25T03:15:54.676Z,0
2022-11-25T03:16:54.767Z,0
2022-11-25T03:17:55.151Z,0
2022-11-25T03:18:54.857Z,0
2022-11-25T03:19:55.145Z,0
2022-11-25T03:20:57.739Z,0
2022-11-25T03:21:54.747Z,0
2022-11-25T03:22:54.659Z,0
2022-11-25T03:23:54.651Z,0
2022-11-25T03:24:54.660Z,0
2022-11-25T03:25:54.648Z,0
2022-11-25T03:26:54.674Z,0
2022-11-25T03:27:55.109Z,0
2022-11-25T03:28:54.776Z,0
2022-11-25T03:29:54.788Z,0
2022-11-25T03:30:54.775Z,0
2022-11-25T03:31:57.713Z,0
2022-11-25T03:32:55.045Z,0
2022-11-25T03:33:54.852Z,0
2022-11-25T03:34:55.095Z,0
2022-11-25T03:35:54.773Z,0
2022-11-25T03:36:54.827Z,0
2022-11-25T03:37:54.689Z,0
2022-11-25T03:38:54.677Z,0
2022-11-25T03:39:54.718Z,0
2022-11-25T03:40:54.807Z,0
2022-11-25T03:41:54.747Z,0
2022-11-25T03:42:57.808Z,0
2022-11-25T03:43:54.757Z,0
2022-11-25T03:44:54.637Z,0
2022-11-25T03:45:54.709Z,0
2022-11-25T03:46:54.781Z,0
2022-11-25T03:47:55.095Z,0
2022-11-25T03:48:54.669Z,0
2022-11-25T03:49:55.151Z,0
2022-11-25T03:50:54.739Z,0
2022-11-25T03:51:54.669Z,0
2022-11-25T03:52:54.833Z,0
2022-11-25T03:53:57.668Z,0
2022-11-25T03:54:54.759Z,0
2022-11-25T03:55:54.666Z,0
2022-11-25T03:56:54.676Z,0
2022-11-25T03:57:55.102Z,0
2022-11-25T03:58:54.774Z,0
2022-11-25T03:59:54.723Z,0
2022-11-25T04:00:54.737Z,0
2022-11-25T04:01:54.802Z,0
2022-11-25T04:02:55.181Z,0
2022-11-25T04:03:54.765Z,0
2022-11-25T04:04:58.054Z,0
2022-11-25T04:05:54.732Z,0
2022-11-25T04:06:54.677Z,0
2022-11-25T04:07:57.740Z,0
2022-11-25T04:08:54.786Z,0
2022-11-25T04:09:54.650Z,0
2022-11-25T04:10:54.670Z,0
2022-11-25T04:11:54.642Z,0
2022-11-25T04:12:55.103Z,0
2022-11-25T04:13:54.969Z,0
2022-11-25T04:14:54.746Z,0
2022-11-25T04:15:57.708Z,0
2022-11-25T04:16:54.909Z,0
2022-11-25T04:17:55.030Z,0
2022-11-25T04:18:54.669Z,0
2022-11-25T04:19:55.098Z,0
2022-11-25T04:20:54.750Z,0
2022-11-25T04:21:54.657Z,0
2022-11-25T04:22:54.696Z,0
2022-11-25T04:23:54.660Z,0
2022-11-25T04:24:54.658Z,0
2022-11-25T04:25:54.661Z,0
2022-11-25T04:26:57.677Z,0
2022-11-25T04:27:54.744Z,0
2022-11-25T04:28:54.666Z,0
2022-11-25T04:29:54.672Z,0
2022-11-25T04:30:54.699Z,0
2022-11-25T04:31:54.667Z,0
2022-11-25T04:32:55.059Z,0
2022-11-25T04:33:54.681Z,0
2022-11-25T04:34:55.119Z,0
2022-11-25T04:35:54.743Z,0
2022-11-25T04:36:54.752Z,0
2022-11-25T04:37:57.673Z,0
2022-11-25T04:38:54.669Z,0
2022-11-25T04:39:54.674Z,0
2022-11-25T04:40:54.731Z,0
2022-11-25T04:41:54.649Z,0
2022-11-25T04:43:01.547Z,0
2022-11-25T04:43:54.781Z,0
2022-11-25T04:45:14.450Z,0
2022-11-25T04:46:14.321Z,0
2022-11-25T04:46:54.750Z,0
2022-11-25T04:47:55.111Z,0
2022-11-25T04:48:57.708Z,0
2022-11-25T04:49:54.892Z,0
2022-11-25T04:50:54.674Z,0
2022-11-25T04:51:54.667Z,0
2022-11-25T04:52:54.769Z,0
2022-11-25T04:53:54.671Z,0
2022-11-25T04:54:54.665Z,0
2022-11-25T04:55:54.673Z,0
2022-11-25T04:56:54.686Z,0
2022-11-25T04:57:55.097Z,0
2022-11-25T04:58:54.742Z,0
2022-11-25T04:59:57.738Z,0
2022-11-25T05:00:54.827Z,0
2022-11-25T05:01:54.676Z,0
2022-11-25T05:02:55.159Z,0
2022-11-25T05:03:57.644Z,0
2022-11-25T05:04:55.160Z,0
2022-11-25T05:05:54.673Z,0
2022-11-25T05:06:54.666Z,0
2022-11-25T05:07:55.142Z,0
2022-11-25T05:08:54.767Z,0
2022-11-25T05:09:54.668Z,0
2022-11-25T05:10:57.701Z,0
2022-11-25T05:11:54.842Z,0
2022-11-25T05:12:54.777Z,0
2022-11-25T05:13:54.740Z,0
2022-11-25T05:14:54.835Z,0
2022-11-25T05:15:54.764Z,0
2022-11-25T05:16:54.805Z,0
2022-11-25T05:17:55.109Z,0
2022-11-25T05:18:54.880Z,0
2022-11-25T05:19:55.041Z,0
2022-11-25T05:20:54.747Z,0
2022-11-25T05:21:57.672Z,0
2022-11-25T05:22:54.878Z,0
2022-11-25T05:23:55.963Z,0
2022-11-25T05:24:54.665Z,0
2022-11-25T05:25:54.676Z,0
2022-11-25T05:26:54.659Z,0
2022-11-25T05:27:55.051Z,0
2022-11-25T05:28:54.709Z,0
2022-11-25T05:29:56.403Z,0
2022-11-25T05:30:54.866Z,0
2022-11-25T05:31:54.671Z,0
2022-11-25T05:33:00.739Z,0
2022-11-25T05:33:54.751Z,0
2022-11-25T05:34:55.096Z,0
2022-11-25T05:35:54.774Z,0
2022-11-25T05:36:54.676Z,0
2022-11-25T05:37:54.831Z,0
2022-11-25T05:38:54.646Z,0
2022-11-25T05:39:54.676Z,0
2022-11-25T05:40:54.672Z,0
2022-11-25T05:41:54.669Z,0
2022-11-25T05:42:54.804Z,0
2022-11-25T05:43:57.738Z,0
2022-11-25T05:44:54.740Z,0
2022-11-25T05:45:54.825Z,0
2022-11-25T05:46:54.665Z,0
2022-11-25T05:47:55.102Z,0
2022-11-25T05:48:54.774Z,0
2022-11-25T05:49:55.038Z,0
2022-11-25T05:50:54.665Z,0
2022-11-25T05:51:54.655Z,0
2022-11-25T05:52:54.751Z,0
2022-11-25T05:53:54.659Z,0
2022-11-25T05:54:57.397Z,0
2022-11-25T05:55:54.722Z,0
2022-11-25T05:56:54.661Z,0
2022-11-25T05:57:55.097Z,0
2022-11-25T05:58:54.774Z,94.412109375
2022-11-25T05:59:57.675Z,0
2022-11-25T06:00:54.722Z,94.66015625
2022-11-25T06:01:54.738Z,0
2022-11-25T06:02:55.249Z,0
2022-11-25T06:03:54.875Z,0
2022-11-25T06:04:55.220Z,94.25
2022-11-25T06:05:57.661Z,94.32421875
2022-11-25T06:06:54.751Z,94.439453125
2022-11-25T06:07:55.241Z,93.7177734375
2022-11-25T06:08:54.761Z,93.919921875
2022-11-25T06:09:57.657Z,93.8974609375
2022-11-25T06:10:54.675Z,94.0546875
2022-11-25T06:11:54.726Z,94.173828125
2022-11-25T06:12:55.099Z,94.2177734375
2022-11-25T06:13:54.752Z,94.2783203125
2022-11-25T06:14:54.750Z,94.22265625
2022-11-25T06:15:54.769Z,94.521484375
2022-11-25T06:16:54.663Z,94.4384765625
2022-11-25T06:17:55.095Z,94.28125
2022-11-25T06:18:54.661Z,93.689453125
2022-11-25T06:19:55.103Z,94.0478515625
2022-11-25T06:20:54.744Z,94.0244140625
2022-11-25T06:21:57.702Z,93.625
2022-11-25T06:22:55.138Z,93.2001953125
2022-11-25T06:23:54.666Z,93.615234375
2022-11-25T06:25:00.319Z,93.6630859375
2022-11-25T06:25:54.676Z,93.5634765625
2022-11-25T06:26:54.668Z,93.7080078125
2022-11-25T06:28:12.276Z,93.947265625
2022-11-25T06:28:54.807Z,93.634765625
2022-11-25T06:29:54.782Z,93.76171875
2022-11-25T06:30:54.681Z,93.8974609375
2022-11-25T06:31:54.655Z,93.8759765625
2022-11-25T06:33:00.741Z,94.05078125
2022-11-25T06:33:54.742Z,94.0068359375
2022-11-25T06:34:55.098Z,93.7919921875
2022-11-25T06:35:54.718Z,93.828125
2022-11-25T06:36:54.675Z,94.0556640625
2022-11-25T06:37:55.119Z,93.6982421875
2022-11-25T06:38:54.671Z,94.0146484375
2022-11-25T06:39:54.648Z,94.40625
2022-11-25T06:40:57.770Z,94.5068359375
2022-11-25T06:41:54.684Z,0
2022-11-25T06:42:55.095Z,0
2022-11-25T06:43:57.803Z,0
2022-11-25T06:44:54.749Z,0
2022-11-25T06:45:54.830Z,0
2022-11-25T06:46:54.861Z,0
2022-11-25T06:47:55.103Z,0
2022-11-25T06:48:54.750Z,0
2022-11-25T06:49:54.806Z,0
2022-11-25T06:50:54.675Z,0
2022-11-25T06:51:54.658Z,0
2022-11-25T06:52:55.099Z,0
2022-11-25T06:53:54.742Z,0
2022-11-25T06:54:57.638Z,0
2022-11-25T06:55:54.765Z,0
2022-11-25T06:56:54.695Z,0
2022-11-25T06:58:08.416Z,0
2022-11-25T06:58:54.883Z,0
2022-11-25T06:59:54.747Z,0
2022-11-25T07:00:54.684Z,0
2022-11-25T07:01:54.799Z,0
2022-11-25T07:02:55.129Z,0
2022-11-25T07:03:54.753Z,0
2022-11-25T07:04:55.124Z,0
2022-11-25T07:05:57.696Z,0
2022-11-25T07:06:54.734Z,0
2022-11-25T07:07:55.180Z,0
2022-11-25T07:08:54.652Z,0
2022-11-25T07:09:54.776Z,0
2022-11-25T07:10:54.671Z,0
2022-11-25T07:11:54.743Z,0
2022-11-25T07:12:55.112Z,0
2022-11-25T07:13:54.875Z,0
2022-11-25T07:14:54.664Z,0
2022-11-25T07:15:54.899Z,0
2022-11-25T07:16:54.653Z,0
2022-11-25T07:17:55.034Z,0
2022-11-25T07:18:54.759Z,0
2022-11-25T07:19:55.090Z,0
2022-11-25T07:20:54.755Z,0
2022-11-25T07:21:57.671Z,0
2022-11-25T07:22:55.032Z,0
2022-11-25T07:23:54.770Z,0
2022-11-25T07:24:54.687Z,0
2022-11-25T07:25:54.676Z,0
2022-11-25T07:26:54.683Z,0
2022-11-25T07:27:55.072Z,0
2022-11-25T07:28:54.673Z,0
2022-11-25T07:30:19.177Z,0
2022-11-25T07:31:22.740Z,0
2022-11-25T07:31:54.752Z,0
2022-11-25T07:33:00.792Z,0
2022-11-25T07:33:54.668Z,0
2022-11-25T07:34:54.674Z,0
2022-11-25T07:35:54.652Z,0
2022-11-25T07:36:54.739Z,0
2022-11-25T07:37:55.182Z,0
2022-11-25T07:38:54.668Z,0
2022-11-25T07:39:54.670Z,0
2022-11-25T07:40:54.733Z,0
2022-11-25T07:41:54.756Z,0
2022-11-25T07:42:55.077Z,0
2022-11-25T07:43:57.881Z,0
2022-11-25T07:44:54.830Z,0
2022-11-25T07:45:54.745Z,0
2022-11-25T07:46:54.730Z,0
2022-11-25T07:47:55.147Z,0
2022-11-25T07:48:54.883Z,93.1201171875
2022-11-25T07:49:55.034Z,92.931640625
2022-11-25T07:50:54.653Z,92.9482421875
2022-11-25T07:51:54.789Z,92.2373046875
2022-11-25T07:52:55.150Z,92.037109375
2022-11-25T07:53:54.640Z,91.7236328125
2022-11-25T07:54:57.656Z,91.80078125
2022-11-25T07:55:54.752Z,91.9921875
2022-11-25T07:56:54.674Z,92.2080078125
2022-11-25T07:57:55.033Z,92.091796875
2022-11-25T07:58:54.656Z,92.09375
2022-11-25T07:59:54.670Z,91.5908203125
2022-11-25T08:00:54.719Z,91.1171875
2022-11-25T08:01:54.790Z,90.884765625
2022-11-25T08:02:55.103Z,91.2353515625
2022-11-25T08:03:54.748Z,92.27734375
2022-11-25T08:04:55.106Z,92.841796875
2022-11-25T08:05:57.714Z,0
2022-11-25T08:06:54.750Z,0
2022-11-25T08:07:55.064Z,0
2022-11-25T08:08:54.698Z,0
2022-11-25T08:09:54.662Z,0
2022-11-25T08:10:54.675Z,0
2022-11-25T08:11:57.841Z,0
2022-11-25T08:12:56.064Z,0
2022-11-25T08:13:54.661Z,0
2022-11-25T08:14:54.657Z,0
2022-11-25T08:15:54.727Z,0
2022-11-25T08:16:54.669Z,0
2022-11-25T08:17:54.679Z,0
2022-11-25T08:18:55.104Z,0
2022-11-25T08:19:55.032Z,0
2022-11-25T08:20:54.744Z,0
2022-11-25T08:21:54.675Z,0
2022-11-25T08:22:57.719Z,0
2022-11-25T08:23:55.155Z,0
2022-11-25T08:24:54.776Z,0
2022-11-25T08:25:54.677Z,0
2022-11-25T08:26:54.874Z,0
2022-11-25T08:27:54.676Z,0
2022-11-25T08:28:55.028Z,0
2022-11-25T08:29:54.665Z,0
2022-11-25T08:30:54.907Z,0
2022-11-25T08:31:54.647Z,0
2022-11-25T08:32:54.658Z,0
2022-11-25T08:33:55.124Z,0
2022-11-25T08:34:55.035Z,0
2022-11-25T08:35:54.755Z,0
2022-11-25T08:36:54.669Z,0
2022-11-25T08:37:54.678Z,0
2022-11-25T08:39:00.787Z,0
2022-11-25T08:39:55.130Z,0
2022-11-25T08:40:54.671Z,0
2022-11-25T08:41:54.649Z,0
2022-11-25T08:42:54.673Z,0
2022-11-25T08:43:55.264Z,0
2022-11-25T08:44:54.671Z,0
2022-11-25T08:45:54.812Z,0
2022-11-25T08:46:54.706Z,0
2022-11-25T08:47:54.658Z,0
2022-11-25T08:48:55.111Z,0
2022-11-25T08:50:00.788Z,0
2022-11-25T08:50:54.776Z,0
2022-11-25T08:51:54.658Z,0
2022-11-25T08:52:54.774Z,0
2022-11-25T08:53:55.113Z,0
2022-11-25T08:54:54.878Z,0
2022-11-25T08:55:54.683Z,0
2022-11-25T08:56:54.807Z,0
2022-11-25T08:57:54.796Z,0
2022-11-25T08:58:55.108Z,0
2022-11-25T08:59:54.732Z,0
2022-11-25T09:00:57.709Z,0
2022-11-25T09:01:54.772Z,0
2022-11-25T09:02:54.680Z,0
2022-11-25T09:03:55.028Z,0
2022-11-25T09:04:55.128Z,0
2022-11-25T09:05:54.782Z,0
2022-11-25T09:06:54.689Z,0
2022-11-25T09:07:54.774Z,0
2022-11-25T09:08:55.100Z,0
2022-11-25T09:09:54.748Z,0
2022-11-25T09:10:54.717Z,0
2022-11-25T09:11:57.938Z,0
2022-11-25T09:12:54.756Z,0
2022-11-25T09:13:55.147Z,0
2022-11-25T09:14:54.885Z,0
2022-11-25T09:15:54.833Z,91.998046875
2022-11-25T09:16:54.676Z,90.818359375
2022-11-25T09:17:54.674Z,91.0283203125
2022-11-25T09:18:56.390Z,90.234375
2022-11-25T09:19:55.033Z,89.61328125
2022-11-25T09:20:54.756Z,89.7431640625
2022-11-25T09:21:54.674Z,90.3779296875
2022-11-25T09:22:57.705Z,90.396484375
2022-11-25T09:23:55.105Z,90.6826171875
2022-11-25T09:24:54.754Z,90.2724609375
2022-11-25T09:25:54.673Z,90.2060546875
2022-11-25T09:26:54.683Z,90.5029296875
2022-11-25T09:27:54.694Z,90.712890625
2022-11-25T09:28:55.032Z,90.5986328125
2022-11-25T09:29:54.773Z,90.62109375
2022-11-25T09:30:54.729Z,91.3740234375
2022-11-25T09:31:55.247Z,91.087890625
2022-11-25T09:32:54.678Z,91.0234375
2022-11-25T09:33:55.029Z,91.361328125
2022-11-25T09:34:55.094Z,91.2412109375
2022-11-25T09:35:54.666Z,90.564453125
2022-11-25T09:36:54.665Z,90.1318359375
2022-11-25T09:37:54.658Z,91.2763671875
2022-11-25T09:39:00.799Z,91.671875
2022-11-25T09:39:54.774Z,91.1787109375
2022-11-25T09:40:54.772Z,92.28125
2022-11-25T09:41:54.649Z,0
2022-11-25T09:42:54.668Z,0
2022-11-25T09:43:55.025Z,0
2022-11-25T09:44:54.675Z,0
2022-11-25T09:45:54.681Z,0
2022-11-25T09:46:54.738Z,0
2022-11-25T09:47:57.836Z,0
2022-11-25T09:48:55.799Z,90.9951171875
2022-11-25T09:50:00.774Z,90.5537109375
2022-11-25T09:50:54.864Z,89.37109375
2022-11-25T09:51:54.675Z,88.7392578125
2022-11-25T09:52:54.680Z,88.611328125
2022-11-25T09:53:55.044Z,87.57421875
2022-11-25T09:54:54.730Z,86.7314453125
2022-11-25T09:56:01.201Z,86.7548828125
2022-11-25T09:56:54.660Z,85.7939453125
2022-11-25T09:57:59.268Z,85.3876953125
2022-11-25T09:58:54.674Z,85.1376953125
2022-11-25T09:59:54.678Z,85.296875
2022-11-25T10:01:00.733Z,85.15234375
2022-11-25T10:01:54.884Z,84.8994140625
2022-11-25T10:02:55.343Z,84.4365234375
2022-11-25T10:03:54.795Z,84.36328125
2022-11-25T10:04:54.669Z,84.2216796875
2022-11-25T10:05:55.150Z,84.2490234375
2022-11-25T10:06:55.712Z,84.2509765625
2022-11-25T10:07:54.672Z,84.806640625
2022-11-25T10:08:54.767Z,84.53515625
2022-11-25T10:09:54.684Z,83.9716796875
2022-11-25T10:10:55.034Z,84.2021484375
2022-11-25T10:11:57.858Z,84.8046875
2022-11-25T10:12:54.810Z,84.75
2022-11-25T10:13:54.685Z,85.3388671875
2022-11-25T10:14:54.669Z,86.1630859375
2022-11-25T10:15:55.152Z,86.1845703125
2022-11-25T10:16:54.786Z,85.603515625
2022-11-25T10:17:55.040Z,85.5087890625
2022-11-25T10:18:54.787Z,85.4013671875
2022-11-25T10:19:54.731Z,85.2255859375
2022-11-25T10:20:55.145Z,85.87890625
2022-11-25T10:21:54.821Z,86.357421875
2022-11-25T10:22:57.653Z,86.7490234375
2022-11-25T10:23:54.727Z,85.826171875
2022-11-25T10:24:54.770Z,85.818359375
2022-11-25T10:25:55.179Z,85.9580078125
2022-11-25T10:26:54.651Z,86.548828125
2022-11-25T10:27:54.743Z,86.8515625
2022-11-25T10:28:54.680Z,87.310546875
2022-11-25T10:29:54.769Z,86.6708984375
2022-11-25T10:30:55.170Z,86.61328125
2022-11-25T10:31:54.813Z,86.77734375
2022-11-25T10:33:00.784Z,87.4306640625
2022-11-25T10:33:54.654Z,88.1669921875
2022-11-25T10:34:54.662Z,87.9912109375
2022-11-25T10:35:55.088Z,87.947265625
2022-11-25T10:36:54.766Z,87.6005859375
2022-11-25T10:37:54.672Z,87.552734375
2022-11-25T10:38:57.702Z,87.8232421875
2022-11-25T10:39:56.452Z,87.6123046875
2022-11-25T10:40:55.111Z,87.5546875
2022-11-25T10:41:54.750Z,87.173828125
2022-11-25T10:42:54.824Z,86.806640625
2022-11-25T10:43:54.729Z,86.5908203125
2022-11-25T10:44:54.660Z,85.404296875
2022-11-25T10:45:55.156Z,85.2529296875
2022-11-25T10:47:13.388Z,84.94921875
2022-11-25T10:47:55.240Z,84.0927734375
2022-11-25T10:48:54.735Z,83.365234375
2022-11-25T10:49:57.699Z,82.9990234375
2022-11-25T10:50:55.095Z,82.55859375
2022-11-25T10:51:54.742Z,81.9306640625
2022-11-25T10:52:54.659Z,81.966796875
2022-11-25T10:53:54.671Z,82.62890625
2022-11-25T10:54:54.743Z,82.3466796875
2022-11-25T10:55:55.045Z,82.8837890625
2022-11-25T10:56:54.665Z,83.060546875
2022-11-25T10:57:54.665Z,83.130859375
2022-11-25T10:58:54.679Z,82.9599609375
2022-11-25T10:59:54.658Z,83.177734375
2022-11-25T11:01:00.771Z,82.5546875
2022-11-25T11:01:54.821Z,82.1015625
2022-11-25T11:02:55.212Z,81.494140625
2022-11-25T11:03:54.777Z,81.783203125
2022-11-25T11:04:54.684Z,81.876953125
2022-11-25T11:05:55.121Z,82.3671875
2022-11-25T11:06:54.692Z,82.888671875
2022-11-25T11:07:54.858Z,83.7021484375
2022-11-25T11:08:54.673Z,83.16796875
2022-11-25T11:09:54.803Z,82.7314453125
2022-11-25T11:10:57.332Z,81.8037109375
2022-11-25T11:11:57.883Z,82.1484375
2022-11-25T11:12:54.860Z,81.7373046875
2022-11-25T11:13:54.670Z,81.48046875
2022-11-25T11:14:54.669Z,80.8037109375
2022-11-25T11:15:55.159Z,79.5341796875
2022-11-25T11:16:54.752Z,79.5732421875
2022-11-25T11:17:55.036Z,79.271484375
2022-11-25T11:18:54.674Z,79.0107421875
2022-11-25T11:19:54.655Z,79.251953125
2022-11-25T11:20:54.788Z,79.42578125
2022-11-25T11:21:54.750Z,79.8515625
2022-11-25T11:22:57.698Z,80.546875
2022-11-25T11:23:54.740Z,80.599609375
2022-11-25T11:24:54.769Z,80.4169921875
2022-11-25T11:25:55.112Z,79.0654296875
2022-11-25T11:26:54.751Z,78.927734375
2022-11-25T11:27:54.689Z,79.1298828125
2022-11-25T11:28:54.681Z,78.6943359375
2022-11-25T11:29:54.671Z,77.35546875
2022-11-25T11:30:55.125Z,77.2451171875
2022-11-25T11:31:54.797Z,76.1884765625
2022-11-25T11:32:55.160Z,76.861328125
2022-11-25T11:33:57.827Z,76.39453125
2022-11-25T11:34:54.750Z,75.640625
2022-11-25T11:35:55.113Z,75.51171875
2022-11-25T11:36:54.751Z,75.0263671875
2022-11-25T11:37:54.684Z,75.2138671875
2022-11-25T11:38:54.681Z,74.9921875
2022-11-25T11:39:54.654Z,75.203125
2022-11-25T11:40:55.177Z,74.9501953125
2022-11-25T11:41:54.719Z,75.2255859375
2022-11-25T11:42:54.789Z,74.9482421875
2022-11-25T11:43:54.673Z,75.3603515625
2022-11-25T11:44:57.811Z,75.59765625
2022-11-25T11:45:55.050Z,75.48046875
2022-11-25T11:46:54.829Z,75.8896484375
2022-11-25T11:47:55.113Z,77.046875
2022-11-25T11:48:54.752Z,76.5849609375
2022-11-25T11:49:54.712Z,76.9833984375
2022-11-25T11:50:55.041Z,76.80859375
2022-11-25T11:51:54.675Z,77.314453125
2022-11-25T11:52:54.762Z,77.53515625
2022-11-25T11:53:54.746Z,77.728515625
2022-11-25T11:54:54.675Z,77.8291015625
2022-11-25T11:56:18.919Z,77.876953125
2022-11-25T11:56:55.643Z,78.2392578125
2022-11-25T11:57:54.781Z,78.04296875
2022-11-25T11:58:54.660Z,78.3369140625
2022-11-25T11:59:54.737Z,77.8017578125
2022-11-25T12:01:00.739Z,77.68359375
2022-11-25T12:01:54.874Z,77.8974609375
2022-11-25T12:02:55.147Z,78.0224609375
2022-11-25T12:03:54.921Z,77.22265625
2022-11-25T12:04:54.679Z,77.189453125
2022-11-25T12:05:55.114Z,77.0283203125
2022-11-25T12:06:54.676Z,77.6484375
2022-11-25T12:07:54.815Z,77.4677734375
2022-11-25T12:08:54.657Z,77.5859375
2022-11-25T12:09:54.677Z,77.53125
2022-11-25T12:10:54.831Z,78.0419921875
2022-11-25T12:11:58.004Z,78.2412109375
2022-11-25T12:12:54.740Z,78.017578125
2022-11-25T12:14:00.574Z,77.6259765625
2022-11-25T12:14:54.661Z,77.0322265625
2022-11-25T12:15:55.127Z,77.76953125
2022-11-25T12:16:54.710Z,77.603515625
2022-11-25T12:17:55.041Z,77.8310546875
2022-11-25T12:18:54.701Z,78.4296875
2022-11-25T12:19:54.678Z,79.08203125
2022-11-25T12:20:55.135Z,78.9482421875
2022-11-25T12:21:54.751Z,78.435546875
2022-11-25T12:22:57.707Z,78.0556640625
2022-11-25T12:23:54.750Z,78.2861328125
2022-11-25T12:24:54.652Z,78.5576171875
2022-11-25T12:25:55.035Z,78.6787109375
2022-11-25T12:26:54.675Z,79.3828125
2022-11-25T12:27:54.675Z,80.3447265625
2022-11-25T12:28:54.797Z,80.7490234375
2022-11-25T12:29:54.677Z,81.6513671875
2022-11-25T12:30:55.105Z,81.8994140625
2022-11-25T12:31:54.822Z,82.6650390625
2022-11-25T12:32:55.152Z,82.9228515625
2022-11-25T12:33:57.678Z,83.466796875
2022-11-25T12:34:54.774Z,83.9130859375
2022-11-25T12:35:55.157Z,84.1142578125
2022-11-25T12:36:54.766Z,84.5341796875
2022-11-25T12:37:54.670Z,84.6650390625
2022-11-25T12:38:54.654Z,84.4736328125
2022-11-25T12:39:54.675Z,84.859375
2022-11-25T12:40:55.040Z,84.8271484375
2022-11-25T12:41:54.733Z,84.716796875
2022-11-25T12:42:54.681Z,84.1650390625
2022-11-25T12:43:54.671Z,84.2548828125
2022-11-25T12:45:00.800Z,84.0703125
2022-11-25T12:45:54.786Z,83.685546875
2022-11-25T12:46:54.675Z,83.1474609375
2022-11-25T12:47:55.127Z,82.8193359375
2022-11-25T12:48:54.660Z,82.5517578125
2022-11-25T12:49:54.798Z,82.5810546875
2022-11-25T12:50:54.670Z,82.509765625
2022-11-25T12:51:54.671Z,82.5029296875
2022-11-25T12:52:54.811Z,82.4853515625
2022-11-25T12:53:54.678Z,82.6728515625
2022-11-25T12:54:55.112Z,82.9677734375
2022-11-25T12:55:57.705Z,83.4794921875
2022-11-25T12:56:54.742Z,83.6767578125